Carlsbad Caverns National Park, NM

9:51 AM MST on February 27, 2015 (GMT -0700)
KNMCARLS3 | Change Station
CLOSE
Current Station
Personal Weather Station
Location: Carlsbad, NM
Elevation: 3158 ft
Nearby Weather Stations
Active Advisory: Winter Weather Advisory

Elev 3158 ft 32.43 °N, 104.25 °W | Updated 4 seconds ago

Fog
Fog
22.6 °F
Feels Like 23 °F
N
0.0
Wind Variable Wind from North
Gusts 7.0 mph

Today
High -- | Low -- °F
--% Chance of Precip.
Yesterday
High -- | Low -- °F
Precip. -- in
6:27 AM 5:52 PM
Waxing Gibbous, 70% visible
Pressure 30.24 in
Visibility 4.0 miles
Clouds Overcast 1000 ft
Windchill 23 °F
Dew Point 18 °F
Humidity 81%
Rainfall 0.00 in
Snow Depth Not available.
UV 1 out of 12
Pollen 2.50 out of 12
Air Quality Not available.
Flu Activity Not available.
SPECI KCNM 271613Z AUTO 10010KT 4SM BR OVC010 M05/M07 A3024 RMK AO2 T10501072

More Conditions Fewer Conditions

Pressure 30.24 in
Visibility 4.0 miles
Clouds Overcast 1000 ft
Windchill 23 °F
Dew Point 18 °F
Humidity 81%
Rainfall 0.00 in
Snow Depth Not available.
UV 1 out of 12
Pollen 2.50 out of 12
Air Quality Not available.
Flu Activity Not available.
SPECI KCNM 271613Z AUTO 10010KT 4SM BR OVC010 M05/M07 A3024 RMK AO2 T10501072

More Conditions Fewer Conditions

10-Day Weather Forecast

Almanac

Astronomy

Feb. 27, 2015 Rise Set
Actual Time
Civil Twilight
Nautical Twilight
Astronomical Twilight
Moon
Length of Visible Light
Length of Day
Tomorrow will be .
, % of the Moon is Illuminated

Today's Extremes

State Highs State Lows

Community

WunderPhotos

Upload Photos

1,800,732 photos uploaded!

WunderBlogs® & News

Nearby

Air Quality

  Air Quality AQ Index Pollutant
Not available.

Snow Depth

Station Depth Elevation

Earthquake Activity

City Distance Mag. Time & Date
Minimum magnitude displayed is 2.5.

Coastal Water Temperatures

Place Temperature

Nearby Weather Stations

Winter Weather Advisory
Statement as of 4:41 AM MST on February 27, 2015

... Winter Weather Advisory remains in effect until noon CST
/11 am MST/ today...

* event... moderate snow.

* Timing... through noon CST /11 am MST today.

* Impacts... accumulating snow may result in slick and hazardous
roadways... particularly bridges and overpasses. Reductions in
visibility due to snow are also possible.

* Snow accumulations... 1 to 4 inches.

Precautionary/preparedness actions...

A Winter Weather Advisory for snow means that periods of snow
will cause primarily travel difficulties. Be prepared for snow
covered roads and limited visibilities... and use caution while
driving.